createdAt,value
2019-06-07T00:00:27.059Z,0.90
2019-06-07T00:02:35.225Z,0.90
2019-06-07T00:05:04.285Z,0.97
2019-06-07T00:07:32.717Z,0.90
2019-06-07T00:10:01.286Z,0.80
2019-06-07T00:12:29.732Z,1.00
2019-06-07T00:14:58.221Z,0.50
2019-06-07T00:17:26.934Z,0.67
2019-06-07T00:19:55.429Z,0.90
2019-06-07T00:22:33.128Z,1.83
2019-06-07T00:24:54.284Z,0.87
2019-06-07T00:27:23.214Z,1.33
2019-06-07T00:29:51.714Z,0.93
2019-06-07T00:32:22.051Z,0.90
2019-06-07T00:34:50.477Z,1.00
2019-06-07T00:37:22.582Z,0.70
2019-06-07T00:40:12.953Z,0.70
2019-06-07T00:42:21.634Z,0.97
2019-06-07T00:44:50.281Z,0.80
2019-06-07T00:47:23.649Z,0.83
2019-06-07T00:49:49.522Z,0.70
2019-06-07T00:53:08.214Z,0.97
2019-06-07T00:54:48.795Z,0.93
2019-06-07T00:57:19.375Z,0.70
2019-06-07T00:59:47.543Z,0.80
2019-06-07T01:02:16.660Z,1.00
2019-06-07T01:04:46.359Z,0.77
2019-06-07T01:07:17.076Z,0.90
2019-06-07T01:09:46.116Z,1.10
2019-06-07T01:12:18.120Z,0.80
2019-06-07T01:14:44.958Z,1.17
2019-06-07T01:17:39.854Z,1.33
2019-06-07T01:19:55.260Z,0.90
2019-06-07T01:22:28.734Z,0.90
2019-06-07T01:24:54.425Z,1.20
2019-06-07T01:27:25.428Z,1.03
2019-06-07T01:29:53.746Z,0.93
2019-06-07T01:32:26.492Z,0.80
2019-06-07T01:34:52.485Z,0.70
2019-06-07T01:37:24.989Z,0.83
2019-06-07T01:39:51.241Z,0.90
2019-06-07T01:42:22.018Z,1.10
2019-06-07T01:44:50.487Z,0.90
2019-06-07T01:47:21.266Z,0.83
2019-06-07T01:49:49.246Z,0.90
2019-06-07T01:52:19.522Z,0.83
2019-06-07T01:54:57.352Z,1.20
2019-06-07T01:57:36.535Z,0.80
2019-06-07T01:59:48.609Z,1.00
2019-06-07T02:02:17.800Z,0.80
2019-06-07T02:04:48.054Z,1.20
2019-06-07T02:07:19.434Z,1.00
2019-06-07T02:09:47.453Z,1.00
2019-06-07T02:12:25.543Z,0.80
2019-06-07T02:14:46.302Z,0.90
2019-06-07T02:17:14.817Z,0.90
2019-06-07T02:19:43.245Z,0.90
2019-06-07T02:22:11.757Z,0.90
2019-06-07T02:24:40.250Z,1.10
2019-06-07T02:27:08.742Z,1.20
2019-06-07T02:29:37.592Z,0.97
2019-06-07T02:32:06.101Z,0.90
2019-06-07T02:34:38.608Z,1.00
2019-06-07T02:37:04.877Z,0.90
2019-06-07T02:39:38.274Z,0.90
2019-06-07T02:42:04.482Z,0.90
2019-06-07T02:44:38.557Z,1.10
2019-06-07T02:47:03.215Z,1.17
2019-06-07T02:49:39.655Z,0.90
2019-06-07T02:58:42.154Z,1.00
2019-06-07T03:01:11.298Z,1.00
2019-06-07T03:03:40.339Z,0.93
2019-06-07T03:06:10.341Z,1.00
2019-06-07T03:08:40.702Z,1.20
2019-06-07T03:11:11.400Z,1.20
2019-06-07T03:13:41.540Z,1.00
2019-06-07T03:16:11.839Z,1.00
2019-06-07T03:19:03.681Z,0.93
2019-06-07T03:21:37.374Z,1.00
2019-06-07T03:24:05.899Z,1.10
2019-06-07T03:26:42.503Z,1.00
2019-06-07T03:29:04.738Z,1.07
2019-06-07T03:31:41.688Z,0.80
2019-06-07T03:34:03.567Z,1.17
2019-06-07T03:36:32.240Z,1.00
2019-06-07T03:39:01.616Z,0.93
2019-06-07T03:41:36.921Z,0.90
2019-06-07T03:44:00.347Z,0.83
2019-06-07T03:46:30.133Z,1.03
2019-06-07T03:48:59.145Z,1.00
2019-06-07T03:51:28.859Z,1.00
2019-06-07T03:53:57.797Z,0.90
2019-06-07T03:56:28.128Z,1.13
2019-06-07T03:58:56.529Z,1.00
2019-06-07T04:01:24.972Z,0.80
2019-06-07T04:03:53.449Z,0.90
2019-06-07T04:06:21.900Z,0.90
2019-06-07T04:08:50.414Z,0.73
2019-06-07T04:11:18.882Z,1.00
2019-06-07T04:13:47.413Z,1.07
2019-06-07T04:16:15.854Z,1.07
2019-06-07T04:18:44.345Z,1.10
2019-06-07T04:21:12.781Z,1.10
2019-06-07T04:23:45.496Z,0.90
2019-06-07T04:26:11.606Z,1.20
2019-06-07T04:29:30.438Z,0.93
2019-06-07T04:31:10.385Z,1.17
2019-06-07T04:33:42.854Z,0.83
2019-06-07T04:36:10.039Z,0.87
2019-06-07T04:38:42.605Z,0.90
2019-06-07T04:41:12.935Z,0.80
2019-06-07T04:43:43.238Z,1.13
2019-06-07T04:46:12.409Z,0.80
2019-06-07T04:48:43.902Z,1.87
2019-06-07T04:51:14.316Z,1.07
2019-06-07T04:53:43.582Z,1.20
2019-06-07T04:56:12.130Z,1.00
2019-06-07T04:58:41.566Z,1.00
2019-06-07T05:01:26.257Z,0.97
2019-06-07T05:03:44.086Z,1.03
2019-06-07T05:06:10.652Z,1.20
2019-06-07T05:08:43.638Z,1.40
2019-06-07T05:11:09.732Z,2.07
2019-06-07T05:13:40.488Z,1.20
2019-06-07T05:16:08.336Z,1.10
2019-06-07T05:18:40.214Z,1.30
2019-06-07T05:21:06.856Z,0.90
2019-06-07T05:24:05.737Z,1.00
2019-06-07T05:26:05.626Z,2.00
2019-06-07T05:28:35.129Z,1.63
2019-06-07T05:31:06.179Z,1.40
2019-06-07T05:33:36.612Z,1.17
2019-06-07T05:36:04.744Z,1.10
2019-06-07T05:38:33.506Z,1.70
2019-06-07T05:41:02.009Z,1.60
2019-06-07T05:43:34.337Z,1.27
2019-06-07T05:46:00.725Z,1.17
2019-06-07T05:48:29.144Z,1.40
2019-06-07T05:50:57.946Z,0.90
2019-06-07T05:53:26.805Z,1.40
2019-06-07T05:55:55.286Z,1.53
2019-06-07T05:58:23.704Z,1.83
2019-06-07T06:00:52.182Z,1.37
2019-06-07T06:03:21.444Z,1.53
2019-06-07T06:05:55.408Z,1.20
2019-06-07T06:08:20.792Z,1.13
2019-06-07T06:10:49.665Z,1.80
2019-06-07T06:13:18.489Z,1.83
2019-06-07T06:16:00.862Z,2.20
2019-06-07T06:18:18.282Z,1.33
2019-06-07T06:21:09.715Z,1.60
2019-06-07T06:23:18.031Z,1.67
2019-06-07T06:25:53.682Z,1.40
2019-06-07T06:28:17.419Z,1.63
2019-06-07T06:30:49.420Z,1.57
2019-06-07T06:33:33.189Z,0.90
2019-06-07T06:35:50.814Z,1.47
2019-06-07T06:38:18.839Z,1.20
2019-06-07T06:40:52.655Z,1.10
2019-06-07T06:43:17.544Z,1.10
2019-06-07T06:45:49.672Z,1.37
2019-06-07T06:48:16.821Z,1.10
2019-06-07T06:50:49.040Z,0.80
2019-06-07T06:53:15.887Z,0.97
2019-06-07T06:55:47.903Z,0.80
2019-06-07T06:58:14.721Z,0.70
2019-06-07T07:00:58.929Z,0.80
2019-06-07T07:05:54.757Z,0.90
2019-06-07T07:08:21.933Z,1.00
2019-06-07T07:10:53.944Z,0.90
2019-06-07T07:13:20.828Z,0.80
2019-06-07T07:15:55.117Z,1.00
2019-06-07T07:18:19.615Z,1.10
2019-06-07T07:20:50.443Z,1.00
2019-06-07T07:23:21.878Z,0.97
2019-06-07T07:25:57.296Z,1.17
2019-06-07T07:28:20.733Z,1.13
2019-06-07T07:30:55.272Z,1.53
2019-06-07T07:33:21.593Z,0.90
2019-06-07T07:36:10.989Z,1.10
2019-06-07T07:38:20.469Z,1.00
2019-06-07T07:41:01.664Z,1.00
2019-06-07T07:43:19.203Z,1.33
2019-06-07T07:45:54.982Z,0.90
2019-06-07T07:48:19.625Z,1.00
2019-06-07T07:50:51.452Z,0.90
2019-06-07T07:53:18.413Z,0.97
2019-06-07T07:55:51.073Z,1.70
2019-06-07T07:58:17.161Z,1.20
2019-06-07T08:00:53.016Z,0.90
2019-06-07T08:03:15.906Z,0.90
2019-06-07T08:05:45.686Z,1.20
2019-06-07T08:08:15.092Z,1.33
2019-06-07T08:10:43.548Z,1.27
2019-06-07T08:13:24.740Z,0.80
2019-06-07T08:15:42.326Z,0.90
2019-06-07T08:18:10.840Z,1.07
2019-06-07T08:20:39.268Z,1.10
2019-06-07T08:23:07.840Z,0.97
2019-06-07T08:25:36.341Z,1.23
2019-06-07T08:28:04.958Z,1.10
2019-06-07T08:30:54.970Z,1.43
2019-06-07T08:33:24.733Z,1.03
2019-06-07T08:40:35.393Z,0.77
2019-06-07T08:43:18.353Z,1.37
2019-06-07T08:45:34.164Z,1.20
2019-06-07T08:48:09.291Z,1.20
2019-06-07T08:50:33.111Z,1.20
2019-06-07T08:53:11.463Z,1.13
2019-06-07T08:55:31.964Z,0.90
2019-06-07T08:58:04.085Z,1.17
2019-06-07T09:00:48.011Z,1.00
2019-06-07T09:03:05.095Z,1.27
2019-06-07T09:05:32.421Z,1.13
2019-06-07T09:08:23.478Z,1.30
2019-06-07T09:10:32.678Z,1.20
2019-06-07T09:13:07.613Z,1.10
2019-06-07T09:15:31.924Z,1.37
2019-06-07T09:20:45.270Z,0.93
2019-06-07T09:23:17.369Z,1.13
2019-06-07T09:25:56.716Z,1.30
2019-06-07T09:28:19.766Z,1.00
2019-06-07T09:30:45.497Z,1.20
2019-06-07T09:33:14.025Z,1.23
2019-06-07T09:35:42.825Z,1.20
2019-06-07T09:38:24.152Z,1.03
2019-06-07T09:40:42.376Z,1.20
2019-06-07T09:45:41.170Z,1.13
2019-06-07T09:48:15.417Z,1.10
2019-06-07T09:50:40.094Z,1.10
2019-06-07T09:53:20.981Z,1.17
2019-06-07T09:55:39.346Z,1.00
2019-06-07T09:58:49.647Z,1.30
2019-06-07T10:00:41.472Z,1.60
2019-06-07T10:03:17.750Z,1.93
2019-06-07T10:05:39.141Z,1.10
2019-06-07T10:08:37.048Z,1.70
2019-06-07T10:10:37.927Z,1.57
2019-06-07T10:13:06.604Z,1.10
2019-06-07T10:15:36.687Z,1.43
2019-06-07T10:18:05.216Z,1.17
2019-06-07T10:20:33.718Z,1.10
2019-06-07T10:23:03.552Z,1.30
2019-06-07T10:25:32.365Z,1.40
2019-06-07T10:28:01.809Z,1.60
2019-06-07T10:30:30.470Z,1.30
2019-06-07T10:33:00.011Z,1.80
2019-06-07T10:35:28.902Z,1.80
2019-06-07T10:37:58.276Z,1.70
2019-06-07T10:40:27.048Z,1.37
2019-06-07T10:42:55.501Z,1.50
2019-06-07T10:45:23.994Z,1.80
2019-06-07T10:47:52.497Z,1.83
2019-06-07T10:50:22.043Z,2.43
2019-06-07T10:52:50.552Z,2.07
2019-06-07T10:55:19.103Z,1.80
2019-06-07T10:57:47.538Z,1.67
2019-06-07T11:00:18.052Z,1.60
2019-06-07T11:02:46.597Z,2.23
2019-06-07T11:05:16.525Z,2.03
2019-06-07T11:07:45.398Z,2.10
2019-06-07T11:10:19.071Z,2.13
2019-06-07T11:12:44.184Z,2.20
2019-06-07T11:15:13.045Z,2.10
2019-06-07T11:17:41.573Z,2.17
2019-06-07T11:20:10.406Z,1.50
2019-06-07T11:22:39.388Z,1.57
2019-06-07T11:25:09.269Z,1.47
2019-06-07T11:27:38.726Z,1.93
2019-06-07T11:30:08.386Z,1.67
2019-06-07T11:32:37.111Z,1.90
2019-06-07T11:35:06.369Z,1.73
2019-06-07T11:37:35.204Z,1.33
2019-06-07T11:40:03.978Z,1.60
2019-06-07T11:42:32.468Z,1.80
2019-06-07T11:45:00.900Z,1.90
2019-06-07T11:47:29.413Z,1.70
2019-06-07T11:49:57.840Z,1.87
2019-06-07T11:52:26.350Z,2.10
2019-06-07T11:54:54.798Z,1.97
2019-06-07T11:57:23.285Z,1.90
2019-06-07T11:59:51.725Z,2.50
2019-06-07T12:02:20.218Z,2.20
2019-06-07T12:04:48.663Z,2.13
2019-06-07T12:07:19.768Z,2.17
2019-06-07T12:09:55.859Z,2.13
2019-06-07T12:12:20.245Z,1.80
2019-06-07T12:14:47.983Z,2.30
2019-06-07T12:17:17.618Z,2.10
2019-06-07T12:19:46.434Z,2.10
2019-06-07T12:22:15.830Z,1.93
2019-06-07T12:24:44.463Z,1.73
2019-06-07T12:27:12.969Z,2.10
2019-06-07T12:29:41.925Z,1.73
2019-06-07T12:32:11.229Z,2.60
2019-06-07T12:34:40.061Z,2.03
2019-06-07T12:37:08.554Z,2.03
2019-06-07T12:39:36.997Z,2.57
2019-06-07T12:42:05.537Z,2.37
2019-06-07T12:44:33.975Z,2.70
2019-06-07T12:47:02.468Z,2.23
2019-06-07T12:49:31.019Z,2.10
2019-06-07T12:51:59.528Z,2.80
2019-06-07T12:54:27.971Z,1.97
2019-06-07T12:56:56.467Z,2.30
2019-06-07T12:59:24.913Z,2.47
2019-06-07T13:01:54.017Z,2.07
2019-06-07T13:04:22.604Z,2.67
2019-06-07T13:06:51.158Z,2.23
2019-06-07T13:09:19.889Z,2.47
2019-06-07T13:11:48.707Z,2.23
2019-06-07T13:14:17.794Z,2.10
2019-06-07T13:16:46.541Z,2.60
2019-06-07T13:19:16.273Z,2.30
2019-06-07T13:21:45.325Z,2.80
2019-06-07T13:24:14.016Z,2.70
2019-06-07T13:26:42.506Z,2.17
2019-06-07T13:29:11.092Z,2.50
2019-06-07T13:31:39.622Z,2.77
2019-06-07T13:34:08.229Z,2.57
2019-06-07T13:36:36.666Z,2.27
2019-06-07T13:39:07.008Z,2.13
2019-06-07T13:41:42.462Z,2.77
2019-06-07T13:44:05.765Z,2.50
2019-06-07T13:46:34.213Z,2.70
2019-06-07T13:49:02.726Z,2.30
2019-06-07T13:51:33.265Z,2.80
2019-06-07T13:54:02.111Z,2.70
2019-06-07T13:56:30.649Z,2.50
2019-06-07T13:58:59.155Z,2.27
2019-06-07T14:01:28.885Z,2.87
2019-06-07T14:03:57.729Z,2.70
2019-06-07T14:06:28.104Z,2.40
2019-06-07T14:08:56.482Z,3.17
2019-06-07T14:11:25.645Z,3.07
2019-06-07T14:13:54.212Z,3.50
2019-06-07T14:16:23.869Z,3.37
2019-06-07T14:18:52.953Z,3.13
2019-06-07T14:21:22.560Z,3.50
2019-06-07T14:23:51.226Z,3.40
2019-06-07T14:26:21.166Z,2.10
2019-06-07T14:28:49.917Z,1.20
2019-06-07T14:31:18.370Z,0.60
2019-06-07T14:33:46.988Z,0.50
2019-06-07T14:36:15.506Z,1.10
2019-06-07T14:38:44.018Z,0.67
2019-06-07T14:41:12.450Z,0.70
2019-06-07T14:43:41.002Z,1.03
2019-06-07T14:46:09.710Z,0.63
2019-06-07T14:48:38.223Z,0.50
2019-06-07T14:51:06.780Z,0.60
2019-06-07T14:53:35.364Z,0.70
2019-06-07T14:56:03.897Z,0.77
2019-06-07T14:58:38.162Z,0.90
2019-06-07T15:01:02.749Z,0.50
2019-06-07T15:03:32.742Z,0.60
2019-06-07T15:06:01.431Z,0.70
2019-06-07T15:08:30.664Z,0.50
2019-06-07T15:10:59.440Z,0.60
2019-06-07T15:13:29.312Z,0.50
2019-06-07T15:15:58.536Z,0.60
2019-06-07T15:18:27.605Z,0.70
2019-06-07T15:20:56.473Z,0.40
2019-06-07T15:23:24.909Z,0.70
2019-06-07T15:25:53.434Z,0.70
2019-06-07T15:28:22.325Z,0.50
2019-06-07T15:30:50.830Z,0.70
2019-06-07T15:33:19.730Z,0.50
2019-06-07T15:35:48.637Z,0.60
2019-06-07T15:38:17.062Z,0.50
2019-06-07T15:40:45.557Z,0.50
2019-06-07T15:43:13.992Z,0.50
2019-06-07T15:45:42.485Z,0.60
2019-06-07T15:48:10.920Z,0.43
2019-06-07T15:50:40.473Z,0.60
2019-06-07T15:53:09.074Z,0.60
2019-06-07T15:55:41.972Z,0.73
2019-06-07T15:58:07.827Z,0.90
2019-06-07T16:00:37.441Z,0.67
2019-06-07T16:03:06.005Z,0.50
2019-06-07T16:05:34.523Z,0.60
2019-06-07T16:08:02.967Z,0.50
2019-06-07T16:10:32.623Z,1.00
2019-06-07T16:13:01.215Z,0.60
2019-06-07T16:15:30.105Z,0.70
2019-06-07T16:17:58.955Z,0.70
2019-06-07T16:20:27.451Z,0.50
2019-06-07T16:22:55.902Z,0.50
2019-06-07T16:25:24.406Z,0.53
2019-06-07T16:27:52.902Z,0.70
2019-06-07T16:30:21.477Z,0.93
2019-06-07T16:32:50.335Z,0.50
2019-06-07T16:35:18.843Z,0.60
2019-06-07T16:37:51.550Z,0.60
2019-06-07T16:40:17.581Z,0.50
2019-06-07T16:42:46.134Z,0.60
2019-06-07T16:45:14.945Z,0.57
2019-06-07T16:47:45.952Z,0.67
2019-06-07T16:50:15.477Z,0.50
2019-06-07T16:52:44.360Z,0.50
2019-06-07T16:55:14.615Z,0.50
2019-06-07T16:57:45.034Z,0.40
2019-06-07T17:00:14.274Z,0.53
2019-06-07T17:02:42.713Z,0.53
2019-06-07T17:05:11.233Z,0.50
2019-06-07T17:07:40.225Z,0.60
2019-06-07T17:10:09.570Z,0.70
2019-06-07T17:12:38.689Z,0.50
2019-06-07T17:15:08.182Z,0.50
2019-06-07T17:17:36.614Z,0.50
2019-06-07T17:20:06.594Z,0.50
2019-06-07T17:22:35.032Z,0.40
2019-06-07T17:25:03.823Z,0.40
2019-06-07T17:27:32.326Z,0.40
2019-06-07T17:30:00.836Z,0.40
2019-06-07T17:32:29.406Z,0.70
2019-06-07T17:34:57.845Z,0.47
2019-06-07T17:37:26.636Z,0.50
2019-06-07T17:39:55.552Z,0.40
2019-06-07T17:42:24.062Z,0.50
2019-06-07T17:44:52.490Z,0.37
2019-06-07T17:47:20.991Z,0.30
2019-06-07T17:49:50.029Z,0.50
2019-06-07T17:52:19.113Z,0.60
2019-06-07T17:54:47.990Z,0.50
2019-06-07T17:57:17.198Z,0.40
2019-06-07T17:59:46.467Z,0.50
2019-06-07T18:02:15.793Z,0.30
2019-06-07T18:04:45.098Z,0.60
2019-06-07T18:07:15.780Z,0.50
2019-06-07T18:09:45.361Z,0.60
2019-06-07T18:12:14.304Z,0.47
2019-06-07T18:14:43.736Z,0.47
2019-06-07T18:17:12.515Z,0.50
2019-06-07T18:19:40.953Z,0.40
2019-06-07T18:22:09.341Z,0.40
2019-06-07T18:24:37.761Z,0.60
2019-06-07T18:27:07.197Z,0.50
2019-06-07T18:29:35.861Z,0.50
2019-06-07T18:32:04.413Z,0.73
2019-06-07T18:34:32.851Z,0.67
2019-06-07T18:37:01.341Z,0.53
2019-06-07T18:39:29.788Z,0.90
2019-06-07T18:41:59.428Z,0.50
2019-06-07T18:44:28.264Z,0.60
2019-06-07T18:46:58.290Z,0.47
2019-06-07T18:49:27.162Z,0.63
2019-06-07T18:52:30.639Z,0.50
2019-06-07T18:54:59.655Z,0.60
2019-06-07T18:57:28.845Z,0.40
2019-06-07T18:59:58.710Z,0.77
2019-06-07T19:02:28.551Z,0.60
2019-06-07T19:04:58.430Z,0.63
2019-06-07T19:07:28.078Z,0.47
2019-06-07T19:09:59.319Z,0.60
2019-06-07T19:12:29.643Z,0.60
2019-06-07T19:14:59.674Z,0.70
2019-06-07T19:17:30.182Z,0.60
2019-06-07T19:20:00.933Z,0.50
2019-06-07T19:22:30.882Z,1.37
2019-06-07T19:25:01.146Z,0.60
2019-06-07T19:27:33.033Z,0.70
2019-06-07T19:30:03.438Z,0.47
2019-06-07T19:32:33.537Z,0.63
2019-06-07T19:35:03.261Z,0.70
2019-06-07T19:37:32.950Z,0.60
2019-06-07T19:40:02.925Z,0.50
2019-06-07T19:42:33.289Z,1.33
2019-06-07T19:45:28.498Z,0.40
2019-06-07T19:47:35.620Z,0.60
2019-06-07T19:50:06.174Z,0.60
2019-06-07T19:52:36.392Z,0.60
2019-06-07T19:55:09.887Z,0.50
2019-06-07T19:57:39.551Z,0.50
2019-06-07T20:00:14.700Z,0.40
2019-06-07T20:02:43.557Z,0.50
2019-06-07T20:05:18.947Z,0.60
2019-06-07T20:07:49.036Z,0.40
2019-06-07T20:10:19.330Z,0.70
2019-06-07T20:12:50.041Z,0.70
2019-06-07T20:15:28.906Z,0.60
2019-06-07T20:17:55.110Z,0.70
2019-06-07T20:20:24.883Z,0.70
2019-06-07T20:22:54.663Z,0.60
2019-06-07T20:25:24.416Z,0.53
2019-06-07T20:27:54.417Z,0.60
2019-06-07T20:30:24.283Z,0.60
2019-06-07T20:32:54.327Z,0.90
2019-06-07T20:35:24.167Z,0.50
2019-06-07T20:37:54.984Z,0.50
2019-06-07T20:40:25.067Z,0.70
2019-06-07T20:42:55.657Z,0.50
2019-06-07T20:45:33.695Z,0.50
2019-06-07T20:47:58.067Z,0.50
2019-06-07T20:50:28.266Z,0.47
2019-06-07T20:52:59.813Z,0.50
2019-06-07T20:55:29.330Z,0.50
2019-06-07T20:57:59.106Z,0.60
2019-06-07T21:00:28.824Z,0.60
2019-06-07T21:02:59.004Z,0.73
2019-06-07T21:05:28.231Z,0.50
2019-06-07T21:07:56.795Z,0.50
2019-06-07T21:10:25.313Z,0.60
2019-06-07T21:12:53.797Z,0.53
2019-06-07T21:15:22.293Z,0.53
2019-06-07T21:17:50.746Z,0.57
2019-06-07T21:20:19.505Z,0.50
2019-06-07T21:22:48.737Z,0.50
2019-06-07T21:25:17.253Z,0.60
2019-06-07T21:27:45.782Z,0.70
2019-06-07T21:30:14.273Z,0.43
2019-06-07T21:32:42.935Z,0.50
2019-06-07T21:35:12.397Z,0.50
2019-06-07T21:37:41.269Z,0.60
2019-06-07T21:40:10.323Z,0.50
2019-06-07T21:42:39.448Z,0.50
2019-06-07T21:45:09.831Z,0.60
2019-06-07T21:47:38.741Z,0.53
2019-06-07T21:50:08.463Z,0.50
2019-06-07T21:52:37.388Z,0.60
2019-06-07T21:55:06.932Z,0.60
2019-06-07T21:57:35.734Z,0.60
2019-06-07T22:00:11.288Z,0.77
2019-06-07T22:02:40.035Z,0.50
2019-06-07T22:05:09.630Z,0.60
2019-06-07T22:07:38.466Z,0.40
2019-06-07T22:10:08.017Z,0.57
2019-06-07T22:12:36.734Z,0.60
2019-06-07T22:15:23.964Z,0.60
2019-06-07T22:17:35.952Z,0.57
2019-06-07T22:20:04.973Z,0.53
2019-06-07T22:22:34.477Z,0.50
2019-06-07T22:25:03.292Z,0.60
2019-06-07T22:27:31.819Z,0.60
2019-06-07T22:30:00.766Z,0.60
2019-06-07T22:32:29.199Z,0.60
2019-06-07T22:34:57.691Z,0.50
2019-06-07T22:37:26.131Z,0.57
2019-06-07T22:39:54.645Z,0.63
2019-06-07T22:42:23.092Z,0.57
2019-06-07T22:44:51.940Z,0.90
2019-06-07T22:47:20.391Z,0.70
2019-06-07T22:49:49.178Z,0.50
2019-06-07T22:52:18.435Z,0.50
2019-06-07T22:54:47.213Z,0.40
2019-06-07T22:57:20.866Z,0.60
2019-06-07T22:59:49.778Z,0.70
2019-06-07T23:02:18.852Z,0.53
2019-06-07T23:04:47.867Z,0.60
2019-06-07T23:07:17.098Z,0.60
2019-06-07T23:09:46.094Z,0.80
2019-06-07T23:12:15.274Z,0.90
2019-06-07T23:14:44.036Z,1.10
2019-06-07T23:17:13.843Z,1.40
2019-06-07T23:19:42.590Z,1.27
2019-06-07T23:22:11.870Z,0.83
2019-06-07T23:24:40.574Z,1.23
2019-06-07T23:27:10.928Z,1.00
2019-06-07T23:29:39.211Z,0.90
2019-06-07T23:32:07.773Z,0.83
2019-06-07T23:34:36.268Z,0.93
2019-06-07T23:37:05.269Z,0.60
2019-06-07T23:39:33.697Z,0.60
2019-06-07T23:42:02.186Z,0.90
2019-06-07T23:44:30.661Z,0.60
2019-06-07T23:47:10.764Z,0.73
2019-06-07T23:49:29.450Z,0.80
2019-06-07T23:51:57.968Z,1.00
2019-06-07T23:54:27.005Z,0.90
2019-06-07T23:56:55.501Z,0.80
2019-06-07T23:59:23.937Z,0.70
